Waddell, Mississippi
Current Conditions -  °F | °C
As of 4:55 PM on Wednesday 26 Nov 2014 (Local Time) from KSTF Reporting Station
Overcast Overcast  
Wind Chill: 55°   Ceiling: 8500
Heat Index: 55°   Visibility: NA
Dew Point: 34°   Wind: 0mph
Humidity: 44%   Direction: NA
Pressure: 30.04"   Gusts: NA
Location:  33.6258°N, 88.8428°W
Report Text: KSTF 262255Z AUTO 00000KT SCT075 OVC085 13/01 A3004 RMK AO2 PWINO
Loading
Personal Weather Stations






























Interactive Weather Map New forecast layout! Learn more

10-Day Weather Forecast

Advertisements
Track Severe Weather on mobile